Cleveland, Ohio
Traffic Map
Current Weather Conditions
Cleveland, Ohio
Overcast
Overcast
19°
Feels Like: 19°
Wind Chill: 19° Ceiling: 1900
Heat Index: 19° Visibility: 10mi
Dew Point: 16° Wind: 7mph
Humidity: 81% Direction: 40° (NE)
Pressure: 30.12in Gusts: 0mph
Raw Report DataKBKL 291453Z 04006KT 10SM BKN019 OVC024 19/16 A3012 RMK AO2 SLP197 60001 T01940161 53016
Traffic Incident Summary
Active as of:
Severity:
Category:
InformationThere was an issue retrieving the traffic information for this location. Please try a different location or try again shortly.
Advertisements
Track Severe Weather on mobile